»·PEaware :: USC243 KBUR-KLAS

USC243 :: KBUR-KLAS

FLIGHT INFORMATION

Flight Status: Arrived
Operator: Unknown
More flights by this operator :: More flights under this callsign
Pilot: Andy P. (22680)
Aircraft: GATES LEARJET LEARJET 35/36
(LJ35)
More flights by this aircraft type
Origin: KBUR Bob Hope-Burbank
United States
Destination: KLAS McCarran Intl
United States
More flights between these airports :: More routes between these airports
Route: SLAPP1 MISEN MISEN KEPEC6
File this flight plan on PilotEdge
Remarks:
Altitude:
(Current/Filed)
29,000ft
Speed:
(Current/Filed)
465kts
Departed: 27-May-19 03:03 PM
Arrived: 27-May-19 03:43 PM
Distance/Time
Traveled:
195nm/0:40
Distance/Time
To Go:
Arrived

Flight Plot

Page will automatically refresh every two minutes.

Flight plan parsing failed; only flown route is shown


Map Options




Map Legend


Flown Route
Filed Route
Departure Airport
Arrival Airport
Navaid (VOR, NDB)
Fix

Horizontal Profiles

Position Reports

Time Latitude Longitude Heading Altitude Ground
Speed
27-May-19 14:45 34.199616 -118.360705 93 724ft 0kts
27-May-19 14:46 34.199616 -118.360705 93 724ft 0kts
27-May-19 14:50 34.199617 -118.360706 93 724ft 0kts
27-May-19 14:51 34.199617 -118.360706 93 724ft 0kts
27-May-19 14:52 34.199617 -118.360706 93 724ft 0kts
27-May-19 14:53 34.199617 -118.360706 93 724ft 0kts
27-May-19 14:54 34.199617 -118.360706 93 724ft 0kts
27-May-19 14:55 34.199617 -118.360706 93 724ft 0kts
27-May-19 14:56 34.199617 -118.360706 93 724ft 0kts
27-May-19 14:57 34.199617 -118.360706 93 724ft 0kts
27-May-19 14:58 34.199617 -118.360706 93 724ft 0kts
27-May-19 14:59 34.198859 -118.358598 90 724ft 14kts
27-May-19 15:00 34.203556 -118.359270 347 724ft 21kts
27-May-19 15:01 34.209261 -118.360812 348 724ft 20kts
27-May-19 15:02 34.208741 -118.359539 164 724ft 99kts
27-May-19 15:03 34.165557 -118.380931 221 3350ft 197kts
27-May-19 15:04 34.142492 -118.435292 299 6059ft 208kts
27-May-19 15:05 34.200740 -118.429279 21 9144ft 259kts
27-May-19 15:06 34.273580 -118.401548 10 13225ft 311kts
27-May-19 15:07 34.369038 -118.362193 10 17532ft 384kts
27-May-19 15:08 34.475770 -118.316753 26 21283ft 437kts
27-May-19 15:09 34.570418 -118.222704 30 25517ft 441kts
27-May-19 15:10 34.665410 -118.121451 47 28142ft 484kts
27-May-19 15:11 34.695346 -117.955879 83 29036ft 501kts
27-May-19 15:12 34.703089 -117.785370 82 29011ft 521kts
27-May-19 15:13 34.710749 -117.604513 84 29009ft 543kts
27-May-19 15:14 34.736089 -117.428192 66 29026ft 525kts
27-May-19 15:15 34.780383 -117.259490 67 29007ft 523kts
27-May-19 15:16 34.824733 -117.091001 67 29003ft 522kts
27-May-19 15:17 34.868756 -116.923007 67 28961ft 521kts
27-May-19 15:18 34.913054 -116.754555 64 28958ft 518kts
27-May-19 15:19 34.987316 -116.608602 49 28766ft 505kts
27-May-19 15:20 35.061901 -116.475543 49 25182ft 452kts
27-May-19 15:21 35.134204 -116.363884 38 23377ft 394kts
27-May-19 15:22 35.210471 -116.268368 39 21905ft 393kts
27-May-19 15:23 35.289258 -116.169510 40 20400ft 428kts
27-May-19 15:24 35.372924 -116.063828 40 18792ft 422kts
27-May-19 15:25 35.452345 -115.963445 40 17269ft 403kts
27-May-19 15:26 35.529527 -115.865633 41 15790ft 397kts
27-May-19 15:27 35.600690 -115.775020 41 14418ft 324kts
27-May-19 15:28 35.659108 -115.700695 41 13302ft 292kts
27-May-19 15:29 35.713763 -115.630916 40 13055ft 279kts
27-May-19 15:30 35.777075 -115.574941 6 13039ft 287kts
27-May-19 15:31 35.856717 -115.570496 0 13026ft 286kts
27-May-19 15:32 35.935761 -115.564252 7 13024ft 286kts
27-May-19 15:33 35.989468 -115.506358 65 12452ft 287kts
27-May-19 15:34 36.016592 -115.420448 64 11481ft 263kts
27-May-19 15:35 36.026453 -115.332542 97 10506ft 270kts
27-May-19 15:36 36.020883 -115.238677 93 9271ft 264kts
27-May-19 15:37 36.021050 -115.147587 86 6964ft 264kts
27-May-19 15:38 36.029952 -115.060632 70 4463ft 224kts
27-May-19 15:39 36.071040 -115.045163 320 3281ft 128kts
27-May-19 15:40 36.074153 -115.087014 264 2871ft 119kts
27-May-19 15:41 36.073642 -115.128877 266 2191ft 114kts
27-May-19 15:42 36.074615 -115.145722 300 2184ft 18kts
27-May-19 15:43 36.074982 -115.146307 324 2184ft 12kts
27-May-19 15:44 36.078312 -115.143986 91 2184ft 25kts
27-May-19 15:45 36.078286 -115.131561 89 2184ft 49kts
27-May-19 15:46 36.080713 -115.125934 88 2184ft 11kts
27-May-19 15:47 36.080701 -115.125663 137 2184ft 0kts

Navigation Log

Ident Type
Flight plan parsing failed, navigation log unavailable